Chatsworth, New Jersey
Current Conditions -  °F | °C
As of 1:58 PM on Friday 28 Nov 2014 (Local Time) from KWRI Reporting Station
Scattered Clouds Scattered Clouds  
Wind Chill: 26°   Ceiling: Unl
Heat Index: 36°   Visibility: 10mi
Dew Point: 14°   Wind: 16mph
Humidity: 41%   Direction: 310°NW
Pressure: 30.17"   Gusts: 20mph
Location:  39.82°N, 74.53°W
Report Text: KWRI 281858Z AUTO 31014G17KT 10SM SCT048 02/M10 A3017 RMK AO2 SLP221
Loading
Personal Weather Stations






























Interactive Weather Map New forecast layout! Learn more

10-Day Weather Forecast

Advertisements
Track Severe Weather on mobile